Time;durP1;ratioP1;P1;durP2;ratioP2;P2;SDS_P1;SDS_P2;PMS_P1;PMS_P2;Temp;Humidity;BMP_temperature;BMP_pressure;BME280_temperature;BME280_humidity;BME280_pressure;Samples;Min_cycle;Max_cycle;Signal;HPM_P1;HPM_P2
2022/04/05 00:07:19;321682.00;1.07;555.19;0.00;0.00;0.62;;;;;8.40;1.00;;;;;;2270209;61;1349;-91
2022/04/05 00:29:40;261357.00;0.87;451.48;0.00;0.00;0.62;;;;;7.70;1.00;;;;;;2266160;61;1410;-87
2022/04/05 00:32:08;191538.00;0.64;331.36;0.00;0.00;0.62;;;;;7.70;1.00;;;;;;2290676;56;3784;-90
2022/04/05 00:39:34;324630.00;1.08;560.26;0.00;0.00;0.62;;;;;7.80;1.00;;;;;;1594799;56;3505;-88
2022/04/05 00:44:31;182320.00;0.61;315.48;0.00;0.00;0.62;;;;;7.60;1.00;;;;;;2266963;61;1289;-89
2022/04/05 00:47:12;101589.00;0.34;176.31;0.00;0.00;0.62;;;;;7.70;1.00;;;;;;2265038;61;1687;-89
2022/04/05 00:49:39;89887.00;0.30;156.11;0.00;0.00;0.62;;;;;7.60;1.00;;;;;;2264163;61;1040;-90
2022/04/05 00:59:36;275636.00;0.92;476.03;17968.00;0.06;31.75;;;;;7.90;1.00;;;;;;2261640;61;1420;-88
2022/04/05 01:02:05;57256.00;0.19;99.73;0.00;0.00;0.62;;;;;7.80;1.00;;;;;;2296890;56;3728;-87
2022/04/05 01:27:06;66482.00;0.22;115.68;0.00;0.00;0.62;;;;;8.30;1.00;;;;;;1986961;55;3511;-88
2022/04/05 01:34:37;474527.00;1.58;817.98;76111.00;0.25;132.32;;;;;7.90;1.00;;;;;;2266180;61;1397;-89
2022/04/05 01:37:06;221769.00;0.74;383.39;97901.00;0.33;169.95;;;;;8.00;1.00;;;;;;2264075;61;1923;-88
2022/04/05 01:42:06;606786.00;2.02;1045.94;95473.00;0.32;165.76;;;;;7.90;1.00;;;;;;2269727;61;1433;-89
2022/04/05 01:44:35;349967.00;1.17;603.80;98640.00;0.33;171.22;;;;;8.10;1.00;;;;;;2268081;61;1182;-89
2022/04/05 01:47:06;345193.00;1.15;595.60;96170.00;0.32;166.96;;;;;8.00;1.00;;;;;;2268111;61;1655;-89
2022/04/05 01:49:42;121286344.00;404.29;72277448.00;203477.00;0.68;351.91;;;;;7.70;1.00;;;;;;2272789;41;3600;-88
2022/04/05 01:52:11;710170.00;2.37;1224.88;94865.00;0.32;164.71;;;;;7.60;1.00;;;;;;2280836;40;3751;-89
2022/04/05 01:57:08;1296766.00;4.32;2266.19;122285.00;0.41;212.02;;;;;7.90;1.00;;;;;;2277905;41;3439;-90
2022/04/05 01:59:37;119937824.00;399.79;69891160.00;138505.00;0.46;239.99;;;;;8.20;1.00;;;;;;2268175;61;1421;-89
2022/04/05 02:02:05;872246.00;2.91;1507.43;78458.00;0.26;136.37;;;;;7.90;1.00;;;;;;2333897;41;3775;-88
2022/04/05 02:07:09;785548.00;2.62;1355.93;70511.00;0.24;122.64;;;;;7.80;1.00;;;;;;2269865;61;1476;-88
2022/04/05 02:22:07;1511964.00;5.04;2665.65;177261.00;0.59;306.77;;;;;7.70;1.00;;;;;;2284490;56;3590;-88
2022/04/05 02:34:32;638515.00;2.13;1100.77;3478.00;0.01;6.65;;;;;8.00;1.00;;;;;;2274900;40;3542;-89
2022/04/05 02:36:58;821378.00;2.74;1418.43;15243.00;0.05;27.03;;;;;8.10;1.00;;;;;;2268073;61;1987;-89
2022/04/05 02:44:25;1145487.00;3.82;1991.96;78085.00;0.26;135.73;;;;;7.80;1.00;;;;;;2271196;55;3655;-87
2022/04/05 02:46:52;727208.00;2.42;1254.45;0.00;0.00;0.62;;;;;8.00;1.00;;;;;;2302922;40;3784;-89
2022/04/05 02:54:18;952590.00;3.18;1648.68;47865.00;0.16;83.49;;;;;8.00;1.00;;;;;;2289047;40;3691;-89
2022/04/05 02:56:45;940820.00;3.14;1627.93;8953.00;0.03;16.14;;;;;7.60;1.00;;;;;;2267892;61;2006;-89
2022/04/05 03:14:11;901579.00;3.01;1558.89;43459.00;0.14;75.87;;;;;7.90;1.00;;;;;;2271163;55;3814;-89
2022/04/05 03:26:39;414455.00;1.38;714.66;0.00;0.00;0.62;;;;;7.70;1.00;;;;;;2269096;40;3514;-88
2022/04/05 03:31:36;640866.00;2.14;1104.84;0.00;0.00;0.62;;;;;8.30;1.00;;;;;;2270126;61;1384;-89
2022/04/05 03:34:03;205638.00;0.69;355.63;0.00;0.00;0.62;;;;;8.50;1.00;;;;;;2278833;40;3615;-90
2022/04/05 03:41:33;245689.00;0.82;424.54;0.00;0.00;0.62;;;;;8.10;1.00;;;;;;2269055;40;3508;-87
2022/04/05 03:46:30;247994.00;0.83;428.50;0.00;0.00;0.62;;;;;7.80;1.00;;;;;;2266164;61;1433;-88
2022/04/05 03:51:28;117902.00;0.39;204.46;0.00;0.00;0.62;;;;;8.00;1.00;;;;;;2270728;61;1314;-90
2022/04/05 03:53:55;11212.00;0.04;20.05;0.00;0.00;0.62;;;;;8.30;1.00;;;;;;2268579;61;1101;-87
2022/04/05 03:56:22;146428.00;0.49;253.65;0.00;0.00;0.62;;;;;8.30;1.00;;;;;;2303782;41;3633;-88
2022/04/05 03:58:50;153971.00;0.51;266.65;0.00;0.00;0.62;;;;;8.20;1.00;;;;;;2268397;61;1548;-87
2022/04/05 04:06:20;164279.00;0.55;284.41;0.00;0.00;0.62;;;;;8.40;1.00;;;;;;2270743;61;1302;-89
2022/04/05 04:08:48;519381.00;1.73;895.20;21454.00;0.07;37.79;;;;;8.20;1.00;;;;;;2283352;55;3810;-91
2022/04/05 04:11:15;59652.00;0.20;103.88;0.00;0.00;0.62;;;;;8.20;1.00;;;;;;2276618;40;3614;-88
2022/04/05 04:18:42;688414.00;2.29;1187.15;9783.00;0.03;17.57;;;;;8.80;1.00;;;;;;2270025;61;1983;-87
2022/04/05 04:26:09;264077.00;0.88;456.16;0.00;0.00;0.62;;;;;8.70;1.00;;;;;;2293544;56;3608;-86
2022/04/05 04:28:36;239722.00;0.80;414.27;0.00;0.00;0.62;;;;;8.60;1.00;;;;;;2266020;61;1388;-90
2022/04/05 04:31:03;509096.00;1.70;877.49;0.00;0.00;0.62;;;;;8.70;1.00;;;;;;2274637;55;3767;-89
2022/04/05 04:33:30;313586.00;1.05;541.27;40482.00;0.13;70.72;;;;;8.90;1.00;;;;;;2312604;40;3591;-90
2022/04/05 04:36:00;320053.00;1.07;552.39;0.00;0.00;0.62;;;;;9.10;1.00;;;;;;2309459;55;3787;-91
2022/04/05 04:40:56;284116.00;0.95;490.61;0.00;0.00;0.62;;;;;9.10;1.00;;;;;;2270042;61;1429;-90
2022/04/05 04:43:26;265290.00;0.88;458.25;0.00;0.00;0.62;;;;;9.20;1.00;;;;;;2268339;61;979;-90
2022/04/05 04:48:23;243990.00;0.81;421.61;0.00;0.00;0.62;;;;;9.10;1.00;;;;;;2271962;55;3717;-88
2022/04/05 04:50:50;100256.00;0.33;174.01;0.00;0.00;0.62;;;;;9.00;1.00;;;;;;2269008;61;1476;-90
2022/04/05 04:53:18;158176.00;0.53;273.90;0.00;0.00;0.62;;;;;8.70;1.00;;;;;;2268337;61;1849;-89
2022/04/05 04:55:45;82248.00;0.27;142.92;0.00;0.00;0.62;;;;;8.70;1.00;;;;;;2268468;61;1056;-89
2022/04/05 04:58:12;57719.00;0.19;100.53;0.00;0.00;0.62;;;;;8.50;1.00;;;;;;2265400;61;1916;-89
2022/04/05 05:00:40;55548.00;0.19;96.78;0.00;0.00;0.62;;;;;8.60;1.00;;;;;;2264420;61;1018;-89
2022/04/05 05:03:07;25323.00;0.08;44.49;0.00;0.00;0.62;;;;;8.60;1.00;;;;;;2264441;61;1018;-89
2022/04/05 05:05:34;110387.00;0.37;191.50;0.00;0.00;0.62;;;;;8.40;1.00;;;;;;2264235;61;1028;-91
2022/04/05 05:08:01;87327.00;0.29;151.69;0.00;0.00;0.62;;;;;8.40;1.00;;;;;;2264461;61;1410;-89
2022/04/05 05:10:28;22810.00;0.08;40.14;0.00;0.00;0.62;;;;;8.50;1.00;;;;;;2264401;61;930;-90
2022/04/05 05:12:55;90827.00;0.30;157.74;0.00;0.00;0.62;;;;;8.50;1.00;;;;;;2264386;61;1484;-89
2022/04/05 05:15:22;14676.00;0.05;26.05;0.00;0.00;0.62;;;;;8.10;1.00;;;;;;2264494;61;1077;-89
2022/04/05 05:17:51;212777.00;0.71;367.91;51305.00;0.17;89.44;;;;;8.30;1.00;;;;;;2264469;61;1911;-88
2022/04/05 05:20:18;78728.00;0.26;136.84;0.00;0.00;0.62;;;;;8.30;1.00;;;;;;2264311;61;1023;-89
2022/04/05 05:22:45;199210.00;0.66;344.56;0.00;0.00;0.62;;;;;8.50;1.00;;;;;;2264388;61;1095;-89
2022/04/05 05:25:13;217733.00;0.73;376.44;0.00;0.00;0.62;;;;;8.80;1.00;;;;;;2264222;61;1486;-90
2022/04/05 05:27:40;614825.00;2.05;1059.82;20009.00;0.07;35.29;;;;;8.70;1.00;;;;;;2264233;61;1524;-88
2022/04/05 05:30:09;684371.00;2.28;1180.15;73672.00;0.25;128.11;;;;;8.50;1.00;;;;;;2264306;61;1756;-90
2022/04/05 05:32:43;725456.00;2.42;1251.41;67672.00;0.23;117.74;;;;;8.40;1.00;;;;;;2264450;61;991;-91
2022/04/05 05:35:14;498441.00;1.66;859.14;56967.00;0.19;99.23;;;;;8.30;1.00;;;;;;2264273;61;1095;-90
2022/04/05 05:37:41;484687.00;1.62;835.46;24318.00;0.08;42.75;;;;;8.20;1.00;;;;;;2264404;61;1924;-89
2022/04/05 05:40:09;301208.00;1.00;520.00;1490.00;0.00;3.20;;;;;8.50;1.00;;;;;;2264076;61;1569;-88
2022/04/05 05:42:46;425317.00;1.42;733.33;49440.00;0.16;86.22;;;;;8.50;1.00;;;;;;2264273;61;1089;-88
2022/04/05 05:45:19;728401.00;2.43;1256.52;120130.00;0.40;208.31;;;;;8.70;1.00;;;;;;2264360;61;1140;-88
2022/04/05 05:47:46;196881.00;0.66;340.55;0.00;0.00;0.62;;;;;8.60;1.00;;;;;;2264241;61;1612;-88
2022/04/05 05:50:15;302718.00;1.01;522.59;76864.00;0.26;133.62;;;;;8.70;1.00;;;;;;2264392;61;1119;-89
2022/04/05 05:52:43;91509.00;0.31;158.91;0.00;0.00;0.62;;;;;8.80;1.00;;;;;;2264355;61;1214;-89
2022/04/05 05:55:10;24097.00;0.08;42.36;0.00;0.00;0.62;;;;;8.70;1.00;;;;;;2264237;61;1023;-90
2022/04/05 05:57:39;47943.00;0.16;83.63;0.00;0.00;0.62;;;;;8.50;1.00;;;;;;2264208;61;2014;-91
2022/04/05 06:00:08;14095.00;0.05;25.04;0.00;0.00;0.62;;;;;8.50;1.00;;;;;;2264258;61;1080;-90
2022/04/05 06:02:38;429755.00;1.43;740.96;12164.00;0.04;21.70;;;;;8.80;1.00;;;;;;2264293;61;1140;-88
2022/04/05 06:05:06;793859.00;2.65;1370.42;39749.00;0.13;69.45;;;;;9.00;1.00;;;;;;2264189;61;1095;-90
2022/04/05 06:07:37;654767.00;2.18;1128.88;7124.00;0.02;12.97;;;;;8.70;1.00;;;;;;2264228;61;1677;-87
2022/04/05 06:10:06;217456.00;0.72;375.97;0.00;0.00;0.62;;;;;8.50;1.00;;;;;;2264216;61;1146;-90
2022/04/05 06:12:33;338077.00;1.13;583.37;3928.00;0.01;7.43;;;;;8.50;1.00;;;;;;2264205;61;2353;-88
2022/04/05 06:15:00;554260.00;1.85;955.30;51304.00;0.17;89.44;;;;;8.60;1.00;;;;;;2264247;61;1184;-88
2022/04/05 06:17:27;954968.00;3.18;1652.87;40292.00;0.13;70.39;;;;;8.70;1.00;;;;;;2264230;61;1914;-88
2022/04/05 06:19:54;863223.00;2.88;1491.62;28036.00;0.09;49.18;;;;;8.60;1.00;;;;;;2264202;61;990;-88
2022/04/05 06:22:21;1101760.00;3.67;1913.57;62387.00;0.21;108.60;;;;;8.80;1.00;;;;;;2264197;61;1002;-90
2022/04/05 06:24:49;942028.00;3.14;1630.06;67899.00;0.23;118.13;;;;;9.10;1.00;;;;;;2264347;61;1026;-87
2022/04/05 06:27:16;964604.00;3.22;1669.88;53437.00;0.18;93.13;;;;;8.80;1.00;;;;;;2264058;61;1274;-88
2022/04/05 06:29:43;1155804.00;3.85;2010.51;25353.00;0.08;44.54;;;;;8.90;1.00;;;;;;2264101;61;963;-88
2022/04/05 06:32:10;1174314.00;3.91;2043.85;16528.00;0.06;29.26;;;;;8.90;1.00;;;;;;2264237;61;1104;-89
2022/04/05 06:34:37;896534.00;2.99;1550.03;148170.00;0.49;256.65;;;;;8.80;1.00;;;;;;2264225;61;1016;-88
2022/04/05 06:37:04;915037.00;3.05;1582.55;91347.00;0.30;158.63;;;;;9.10;1.00;;;;;;2264181;61;1277;-89
2022/04/05 06:39:32;1116024.00;3.72;1939.10;155978.00;0.52;270.11;;;;;9.20;1.00;;;;;;2264109;61;1771;-90
2022/04/05 06:42:04;1114382.00;3.71;1936.16;138680.00;0.46;240.30;;;;;9.30;1.00;;;;;;2263857;61;1048;-88
2022/04/05 06:44:31;1211701.00;4.04;2111.39;147017.00;0.49;254.67;;;;;9.30;1.00;;;;;;2264155;61;1132;-88
2022/04/05 06:46:58;917600.00;3.06;1587.05;136941.00;0.46;237.30;;;;;9.30;1.00;;;;;;2264072;61;1741;-88
2022/04/05 06:49:25;1309345.00;4.36;2289.22;165535.00;0.55;286.58;;;;;9.50;1.00;;;;;;2264178;61;1028;-88
2022/04/05 06:51:52;1155209.00;3.85;2009.44;118887.00;0.40;206.16;;;;;9.70;1.00;;;;;;2264122;61;1061;-88
2022/04/05 06:54:23;1173671.00;3.91;2042.69;212894.00;0.71;368.12;;;;;9.60;1.00;;;;;;2264159;61;1766;-88
2022/04/05 06:56:52;1013758.00;3.38;1756.85;147984.00;0.49;256.33;;;;;9.70;1.00;;;;;;2264131;61;1361;-88
2022/04/05 06:59:24;1355582.00;4.52;2374.19;156673.00;0.52;271.31;;;;;9.40;1.00;;;;;;2264185;61;1928;-88
2022/04/05 07:01:51;122414592.00;408.05;74315240.00;116075.00;0.39;201.31;;;;;9.60;1.00;;;;;;2264132;61;1054;-88
2022/04/05 07:04:18;1167185.00;3.89;2031.00;142067.00;0.47;246.13;;;;;9.80;1.00;;;;;;2264120;61;1020;-88
2022/04/05 07:06:45;1689020.00;5.63;3004.11;146663.00;0.49;254.06;;;;;9.70;1.00;;;;;;2264063;61;1289;-87
2022/04/05 07:09:12;832374.00;2.77;1437.64;117730.00;0.39;204.17;;;;;10.00;1.00;;;;;;2263931;61;1662;-88
2022/04/05 07:11:39;872355.00;2.91;1507.62;100965.00;0.34;175.24;;;;;10.00;1.00;;;;;;2264094;61;1531;-88
2022/04/05 07:14:07;787968.00;2.63;1360.15;96107.00;0.32;166.85;;;;;9.90;1.00;;;;;;2264064;61;1449;-87
2022/04/05 07:17:05;934521.00;3.12;1616.83;190097.00;0.63;328.88;;;;;9.80;1.00;;;;;;2263994;61;1692;-86
2022/04/05 07:19:34;149779.00;0.50;259.43;0.00;0.00;0.62;;;;;10.20;1.00;;;;;;2264098;61;1928;-87
2022/04/05 07:22:01;367059.00;1.22;633.18;48106.00;0.16;83.91;;;;;9.70;1.00;;;;;;2264038;61;1047;-88
2022/04/05 07:24:28;784499.00;2.61;1354.10;432.00;0.00;1.37;;;;;9.60;1.00;;;;;;2264033;61;1117;-89
2022/04/05 07:26:55;535172.00;1.78;922.40;13413.00;0.04;23.86;;;;;10.00;1.00;;;;;;2263994;61;1294;-86
2022/04/05 07:29:22;643232.00;2.14;1108.93;4965.00;0.02;9.22;;;;;10.30;1.00;;;;;;2263955;61;2379;-88
2022/04/05 07:31:49;698968.00;2.33;1205.45;46121.00;0.15;80.48;;;;;10.30;1.00;;;;;;2264069;61;925;-88
2022/04/05 07:34:16;827464.00;2.76;1429.06;85521.00;0.29;148.57;;;;;10.30;1.00;;;;;;2263997;61;1098;-86
2022/04/05 07:36:44;729482.00;2.43;1258.40;67948.00;0.23;118.21;;;;;10.40;1.00;;;;;;2263917;61;1304;-87
2022/04/05 07:39:11;655446.00;2.18;1130.06;37308.00;0.12;65.23;;;;;10.00;1.00;;;;;;2263916;61;1993;-86
2022/04/05 07:41:39;881321.00;2.94;1523.34;18994.00;0.06;33.53;;;;;10.30;1.00;;;;;;2263983;61;1718;-88
2022/04/05 07:44:06;662240.00;2.21;1141.82;62641.00;0.21;109.04;;;;;10.20;1.00;;;;;;2264087;61;1032;-88
2022/04/05 07:46:35;643993.00;2.15;1110.24;34184.00;0.11;59.82;;;;;10.20;1.00;;;;;;2264046;61;1367;-87
2022/04/05 07:49:02;895454.00;2.98;1548.14;99601.00;0.33;172.88;;;;;10.50;1.00;;;;;;2263833;61;1562;-89
2022/04/05 07:51:29;659034.00;2.20;1136.27;95934.00;0.32;166.55;;;;;11.00;1.00;;;;;;2263864;61;2237;-86
2022/04/05 07:53:59;720228.00;2.40;1242.33;42663.00;0.14;74.50;;;;;11.10;1.00;;;;;;2263926;61;2324;-88
2022/04/05 07:56:26;857675.00;2.86;1481.90;37366.00;0.12;65.33;;;;;10.80;1.00;;;;;;2264010;61;1002;-89
2022/04/05 07:58:53;920389.00;3.07;1591.96;126755.00;0.42;219.73;;;;;11.00;1.00;;;;;;2263980;61;1919;-86
2022/04/05 08:01:20;551025.00;1.84;949.73;317.00;0.00;1.17;;;;;11.10;1.00;;;;;;2264043;61;1179;-88
2022/04/05 08:03:47;448330.00;1.49;772.91;16084.00;0.05;28.49;;;;;11.20;1.00;;;;;;2264131;61;1697;-88
2022/04/05 08:06:14;648685.00;2.16;1118.36;25654.00;0.09;45.06;;;;;10.80;1.00;;;;;;2264547;61;997;-88
2022/04/05 08:08:41;766506.00;2.56;1322.77;48244.00;0.16;84.15;;;;;11.00;1.00;;;;;;2264485;61;1375;-89
2022/04/05 08:11:09;719859.00;2.40;1241.69;26757.00;0.09;46.97;;;;;10.80;1.00;;;;;;2264632;61;1085;-87
2022/04/05 08:13:36;526047.00;1.75;906.68;20235.00;0.07;35.68;;;;;10.80;1.00;;;;;;2264699;61;917;-88
2022/04/05 08:16:03;953568.00;3.18;1650.40;64341.00;0.21;111.98;;;;;11.10;1.00;;;;;;2264612;61;1572;-88
2022/04/05 08:18:30;914318.00;3.05;1581.28;35945.00;0.12;62.87;;;;;11.40;1.00;;;;;;2264644;61;1919;-87
2022/04/05 08:20:57;841020.00;2.80;1452.76;37607.00;0.13;65.75;;;;;11.30;1.00;;;;;;2264663;61;1084;-87
2022/04/05 08:23:25;814939.00;2.72;1407.19;91730.00;0.31;159.29;;;;;11.40;1.00;;;;;;2264603;61;1794;-85
2022/04/05 08:25:51;716981.00;2.39;1236.70;29513.00;0.10;51.74;;;;;11.70;1.00;;;;;;2264666;61;1116;-87
2022/04/05 08:28:20;793816.00;2.65;1370.34;43911.00;0.15;76.65;;;;;11.70;1.00;;;;;;2264513;61;1333;-87
2022/04/05 08:30:47;709707.00;2.37;1224.08;0.00;0.00;0.62;;;;;11.60;1.00;;;;;;2264620;61;1087;-86
2022/04/05 08:33:14;1132088.00;3.77;1967.90;46201.00;0.15;80.62;;;;;12.00;1.00;;;;;;2264658;61;1108;-87
2022/04/05 08:35:41;883400.00;2.94;1526.98;29877.00;0.10;52.37;;;;;11.10;1.00;;;;;;2264624;61;1001;-87
2022/04/05 08:38:08;796884.00;2.66;1375.69;45950.00;0.15;80.18;;;;;11.40;1.00;;;;;;2264464;61;1911;-87
2022/04/05 08:40:35;1148506.00;3.83;1997.39;94545.00;0.32;164.15;;;;;11.20;1.00;;;;;;2264477;61;1116;-86
2022/04/05 08:43:03;840357.00;2.80;1451.60;46822.00;0.16;81.69;;;;;11.30;1.00;;;;;;2264397;61;996;-86
2022/04/05 08:45:31;848639.00;2.83;1466.09;107181.00;0.36;185.97;;;;;11.40;1.00;;;;;;2264453;61;1599;-87
2022/04/05 08:48:00;1318757.00;4.40;2306.47;164273.00;0.55;284.40;;;;;11.70;1.00;;;;;;2264394;61;1368;-85
2022/04/05 08:50:30;1008389.00;3.36;1747.34;172759.00;0.58;299.02;;;;;11.70;1.00;;;;;;2264412;61;1671;-87
2022/04/05 08:53:00;853943.00;2.85;1475.37;163268.00;0.54;282.67;;;;;11.90;1.00;;;;;;2264612;61;1017;-85
2022/04/05 08:55:28;812600.00;2.71;1403.11;101790.00;0.34;176.66;;;;;11.80;1.00;;;;;;2264588;61;1189;-86
2022/04/05 08:57:56;812495.00;2.71;1402.92;199299.00;0.66;344.72;;;;;11.50;1.00;;;;;;2264500;61;2005;-88
2022/04/05 09:00:25;827740.00;2.76;1429.55;117681.00;0.39;204.08;;;;;11.50;1.00;;;;;;2264442;61;1116;-88
2022/04/05 09:02:56;1506500.00;5.02;2655.36;290969.00;0.97;502.40;;;;;11.90;1.00;;;;;;2264450;61;1631;-87
2022/04/05 09:05:32;1359282.00;4.53;2381.02;184716.00;0.62;319.61;;;;;12.50;1.00;;;;;;2264472;61;1047;-89
2022/04/05 09:08:18;873167.00;2.91;1509.04;12895.00;0.04;22.96;;;;;12.70;1.00;;;;;;2264381;61;1403;-86
2022/04/05 09:10:46;595354.00;1.98;1026.20;81643.00;0.27;141.88;;;;;11.90;1.00;;;;;;2264332;61;1184;-87
2022/04/05 09:13:18;1068895.00;3.56;1854.89;90518.00;0.30;157.20;;;;;11.80;1.00;;;;;;2264288;61;1049;-87
2022/04/05 09:15:50;729622.00;2.43;1258.65;118960.00;0.40;206.29;;;;;11.80;1.00;;;;;;2264379;61;1057;-86
2022/04/05 09:18:35;388513.00;1.30;670.06;29926.00;0.10;52.46;;;;;11.70;1.00;;;;;;2264350;61;2021;-87
2022/04/05 09:21:03;99945.00;0.33;173.48;0.00;0.00;0.62;;;;;11.50;1.00;;;;;;2264296;61;1009;-86
2022/04/05 09:23:33;14620.00;0.05;25.95;0.00;0.00;0.62;;;;;11.90;1.00;;;;;;2264292;61;1847;-87
2022/04/05 09:26:01;90724.00;0.30;157.56;0.00;0.00;0.62;;;;;11.80;1.00;;;;;;2264284;61;1330;-85
2022/04/05 09:28:34;565279.00;1.88;974.30;26166.00;0.09;45.95;;;;;11.80;1.00;;;;;;2264238;61;1404;-87
2022/04/05 09:31:03;66907.00;0.22;116.42;0.00;0.00;0.62;;;;;12.30;1.00;;;;;;2264200;61;1147;-87
2022/04/05 09:33:34;268774.00;0.90;464.24;0.00;0.00;0.62;;;;;12.70;1.00;;;;;;2264268;61;1049;-86
2022/04/05 09:36:08;178204.00;0.59;308.40;0.00;0.00;0.62;;;;;12.70;1.00;;;;;;2264269;61;1115;-87
2022/04/05 09:38:35;21320.00;0.07;37.56;0.00;0.00;0.62;;;;;12.90;1.00;;;;;;2264186;61;1936;-87
2022/04/05 09:41:14;100579.00;0.34;174.57;0.00;0.00;0.62;;;;;13.10;1.00;;;;;;2264143;61;1025;-90
2022/04/05 09:43:51;250863.00;0.84;433.44;37788.00;0.13;66.06;;;;;13.20;1.00;;;;;;2264220;61;1107;-86
2022/04/05 09:46:18;42267.00;0.14;73.81;0.00;0.00;0.62;;;;;13.00;1.00;;;;;;2264188;61;1479;-85
2022/04/05 09:49:01;47227.00;0.16;82.39;0.00;0.00;0.62;;;;;12.70;1.00;;;;;;2264115;61;1387;-87
2022/04/05 09:51:28;90219.00;0.30;156.69;0.00;0.00;0.62;;;;;12.70;1.00;;;;;;2264132;61;1441;-88
2022/04/05 09:53:57;0.00;0.00;0.62;0.00;0.00;0.62;;;;;12.60;1.00;;;;;;2264179;61;1602;-87
2022/04/05 09:59:03;93531.00;0.31;162.40;0.00;0.00;0.62;;;;;13.60;1.00;;;;;;2275588;55;3671;-88
2022/04/05 10:01:32;0.00;0.00;0.62;0.00;0.00;0.62;;;;;14.10;1.00;;;;;;2268295;61;1121;-88
2022/04/05 10:04:04;43251.00;0.14;75.51;0.00;0.00;0.62;;;;;14.20;1.00;;;;;;2268315;61;1605;-89
2022/04/05 10:06:32;50592.00;0.17;88.21;0.00;0.00;0.62;;;;;14.30;1.00;;;;;;2298737;40;3581;-87
2022/04/05 10:08:59;366176.00;1.22;631.66;0.00;0.00;0.62;;;;;13.90;1.00;;;;;;2298672;55;3745;-88
2022/04/05 10:11:28;769518.00;2.57;1328.01;63561.00;0.21;110.63;;;;;13.80;1.00;;;;;;2288263;40;3730;-87
2022/04/05 10:13:55;1034056.00;3.45;1792.88;0.00;0.00;0.62;;;;;13.60;1.00;;;;;;2268144;61;1036;-88
2022/04/05 10:16:26;1182977.00;3.94;2059.47;143260.00;0.48;248.19;;;;;13.60;1.00;;;;;;2275348;56;3716;-85
2022/04/05 10:18:57;574970.00;1.92;991.02;0.00;0.00;0.62;;;;;13.30;1.00;;;;;;2268760;61;1914;-87
2022/04/05 10:21:27;738180.00;2.46;1273.51;4144.00;0.01;7.80;;;;;13.40;1.00;;;;;;2268255;61;1581;-87
2022/04/05 10:23:56;424799.00;1.42;732.44;0.00;0.00;0.62;;;;;13.10;1.00;;;;;;2268345;61;1189;-89
2022/04/05 10:26:25;402025.00;1.34;693.29;0.00;0.00;0.62;;;;;13.20;1.00;;;;;;2268078;61;1421;-87
2022/04/05 10:28:54;576945.00;1.92;994.43;0.00;0.00;0.62;;;;;13.30;1.00;;;;;;2268242;61;1737;-87
2022/04/05 10:31:30;1073643.00;3.58;1863.35;83333.00;0.28;144.79;;;;;13.40;1.00;;;;;;2268124;61;1043;-89
2022/04/05 10:34:08;777961.00;2.59;1342.71;22058.00;0.07;38.83;;;;;13.10;1.00;;;;;;2268271;61;1093;-87
2022/04/05 10:36:36;873650.00;2.91;1509.89;76094.00;0.25;132.29;;;;;13.30;1.00;;;;;;2268191;61;1506;-86
2022/04/05 10:39:17;602492.00;2.01;1038.52;30843.00;0.10;54.04;;;;;13.00;1.00;;;;;;2268127;61;2084;-88
2022/04/05 10:41:45;1043477.00;3.48;1809.63;47375.00;0.16;82.65;;;;;12.90;1.00;;;;;;2268185;61;1872;-86
2022/04/05 10:44:24;396526.00;1.32;683.83;0.00;0.00;0.62;;;;;13.10;1.00;;;;;;2268146;61;1038;-87
2022/04/05 10:46:57;1212452.00;4.04;2112.75;102920.00;0.34;178.61;;;;;13.30;1.00;;;;;;2268016;61;1501;-86
2022/04/05 10:49:39;1241080.00;4.14;2164.67;222318.00;0.74;384.33;;;;;13.60;1.00;;;;;;2268211;61;919;-87
2022/04/05 10:52:10;759154.00;2.53;1309.98;22079.00;0.07;38.87;;;;;13.90;1.00;;;;;;2268203;61;1005;-88
2022/04/05 10:54:40;801596.00;2.67;1383.91;32222.00;0.11;56.43;;;;;14.20;1.00;;;;;;2268295;61;1052;-88
2022/04/05 10:57:29;575322.00;1.92;991.63;0.00;0.00;0.62;;;;;14.10;1.00;;;;;;2268067;61;1452;-86
2022/04/05 11:00:09;0.00;0.00;0.62;0.00;0.00;0.62;;;;;14.50;1.00;;;;;;2268132;61;2009;-88
2022/04/05 11:02:41;44522.00;0.15;77.71;0.00;0.00;0.62;;;;;14.40;1.00;;;;;;2268137;61;1254;-87
2022/04/05 11:05:38;12212.00;0.04;21.78;0.00;0.00;0.62;;;;;14.40;1.00;;;;;;2268217;61;1088;-88
2022/04/05 11:08:12;44777.00;0.15;78.15;0.00;0.00;0.62;;;;;14.00;1.00;;;;;;2267067;61;1544;-87
2022/04/05 11:11:01;14666.00;0.05;26.03;0.00;0.00;0.62;;;;;13.50;1.00;;;;;;2268170;61;1136;-87
2022/04/05 11:13:42;0.00;0.00;0.62;0.00;0.00;0.62;;;;;13.40;1.00;;;;;;2267444;61;1227;-89
2022/04/05 11:16:12;20078.00;0.07;35.41;0.00;0.00;0.62;;;;;13.60;1.00;;;;;;2267975;61;1125;-89
2022/04/05 11:18:39;124382.00;0.41;215.64;0.00;0.00;0.62;;;;;13.70;1.00;;;;;;2267951;61;1910;-86
2022/04/05 11:21:09;44999.00;0.15;78.54;0.00;0.00;0.62;;;;;13.70;1.00;;;;;;2267889;61;1331;-87
2022/04/05 11:23:52;14655.00;0.05;26.01;0.00;0.00;0.62;;;;;13.40;1.00;;;;;;2268045;61;1134;-88
2022/04/05 11:26:35;84116.00;0.28;146.15;0.00;0.00;0.62;;;;;13.50;1.00;;;;;;2267865;61;954;-89
2022/04/05 11:29:04;225380.00;0.75;389.60;30315.00;0.10;53.13;;;;;13.70;1.00;;;;;;2268007;61;1806;-87
2022/04/05 11:31:34;647175.00;2.16;1115.75;0.00;0.00;0.62;;;;;13.90;1.00;;;;;;2268013;61;1110;-88
2022/04/05 11:34:03;621272.00;2.07;1070.96;73534.00;0.25;127.87;;;;;13.90;1.00;;;;;;2267952;61;1173;-87
2022/04/05 11:44:16;455884.00;1.52;785.90;96124.00;0.32;166.88;;;;;13.60;1.00;;;;;;2293289;40;3445;-87
2022/04/05 11:46:50;374260.00;1.25;645.56;93030.00;0.31;161.54;;;;;14.00;1.00;;;;;;2268703;61;1474;-87
2022/04/05 11:49:17;374833.00;1.25;646.54;101003.00;0.34;175.30;;;;;14.20;1.00;;;;;;2269886;40;3589;-87
2022/04/05 11:51:47;518066.00;1.73;892.93;121186.00;0.40;210.13;;;;;14.10;1.00;;;;;;2304924;55;3745;-86
2022/04/05 11:56:44;317706.00;1.06;548.36;28510.00;0.10;50.00;;;;;13.90;1.00;;;;;;2274512;40;3627;-86
2022/04/05 11:59:14;46162.00;0.15;80.55;0.00;0.00;0.62;;;;;14.10;1.00;;;;;;2268714;61;1906;-87
2022/04/05 12:01:49;7927.00;0.03;14.36;0.00;0.00;0.62;;;;;13.80;1.00;;;;;;2268719;61;1470;-90
2022/04/05 12:04:20;23692.00;0.08;41.66;0.00;0.00;0.62;;;;;13.60;1.00;;;;;;2268780;61;993;-88
2022/04/05 12:06:49;174354.00;0.58;301.77;0.00;0.00;0.62;;;;;13.60;1.00;;;;;;2268749;61;1380;-88
2022/04/05 12:09:17;422771.00;1.41;728.95;53246.00;0.18;92.80;;;;;13.60;1.00;;;;;;2268421;61;1743;-87
2022/04/05 12:11:50;9111.00;0.03;16.41;0.00;0.00;0.62;;;;;13.50;1.00;;;;;;2268450;61;1818;-86
2022/04/05 12:14:20;44460.00;0.15;77.60;0.00;0.00;0.62;;;;;13.50;1.00;;;;;;2268586;61;1653;-88
2022/04/05 12:16:49;140024.00;0.47;242.61;0.00;0.00;0.62;;;;;13.30;1.00;;;;;;2268405;61;1387;-86
2022/04/05 12:19:21;0.00;0.00;0.62;0.00;0.00;0.62;;;;;13.60;1.00;;;;;;2268618;61;1994;-87
2022/04/05 12:21:54;123451.00;0.41;214.03;20556.00;0.07;36.23;;;;;13.80;1.00;;;;;;2268528;61;1434;-89
2022/04/05 12:24:21;109007.00;0.36;189.12;0.00;0.00;0.62;;;;;13.90;1.00;;;;;;2268516;61;1528;-87
2022/04/05 12:26:48;161018.00;0.54;278.79;15028.00;0.05;26.66;;;;;13.60;1.00;;;;;;2268492;61;1375;-87
2022/04/05 12:29:16;219502.00;0.73;379.49;58477.00;0.19;101.84;;;;;13.50;1.00;;;;;;2268412;61;1043;-88
2022/04/05 12:31:44;143213.00;0.48;248.11;0.00;0.00;0.62;;;;;13.60;1.00;;;;;;2268561;61;1518;-86
2022/04/05 12:34:13;49619.00;0.17;86.53;0.00;0.00;0.62;;;;;13.70;1.00;;;;;;2268525;61;1369;-87
2022/04/05 12:36:42;7777.00;0.03;14.10;0.00;0.00;0.62;;;;;14.00;1.00;;;;;;2268445;61;1368;-88
2022/04/05 12:39:20;58339.00;0.19;101.61;0.00;0.00;0.62;;;;;14.30;1.00;;;;;;2268420;61;1996;-85
2022/04/05 12:41:49;23610.00;0.08;41.52;0.00;0.00;0.62;;;;;13.90;1.00;;;;;;2268514;61;1106;-87
2022/04/05 12:44:21;155624.00;0.52;269.50;0.00;0.00;0.62;;;;;13.80;1.00;;;;;;2268409;61;2246;-89
2022/04/05 12:46:53;10657.00;0.04;19.09;0.00;0.00;0.62;;;;;13.90;1.00;;;;;;2268341;61;1283;-87
2022/04/05 12:49:30;20647.00;0.07;36.39;0.00;0.00;0.62;;;;;13.80;1.00;;;;;;2268274;61;1715;-87
2022/04/05 12:52:10;548059.00;1.83;944.61;211572.00;0.71;365.84;;;;;13.90;1.00;;;;;;2268443;61;1023;-86